createdAt,value
2019-04-11T00:01:02.209Z,4.10
2019-04-11T00:03:31.024Z,4.10
2019-04-11T00:05:59.851Z,4.10
2019-04-11T00:08:30.107Z,4.10
2019-04-11T00:10:59.607Z,4.10
2019-04-11T00:13:31.760Z,4.10
2019-04-11T00:16:01.321Z,4.00
2019-04-11T00:18:30.571Z,4.00
2019-04-11T00:21:00.292Z,4.00
2019-04-11T00:23:30.251Z,4.00
2019-04-11T00:26:00.079Z,4.00
2019-04-11T00:28:29.922Z,3.90
2019-04-11T00:30:59.189Z,3.90
2019-04-11T00:33:28.088Z,3.90
2019-04-11T00:35:57.789Z,3.80
2019-04-11T00:38:26.913Z,3.80
2019-04-11T00:40:55.844Z,3.80
2019-04-11T00:43:31.617Z,3.80
2019-04-11T00:45:56.097Z,3.70
2019-04-11T00:48:25.908Z,3.80
2019-04-11T00:50:55.953Z,3.70
2019-04-11T00:53:25.703Z,3.70
2019-04-11T00:55:55.647Z,3.70
2019-04-11T00:58:25.672Z,3.70
2019-04-11T01:00:55.548Z,3.70
2019-04-11T01:03:24.928Z,3.70
2019-04-11T01:05:56.785Z,3.70
2019-04-11T01:08:25.775Z,3.60
2019-04-11T01:10:55.184Z,3.60
2019-04-11T01:13:24.429Z,3.60
2019-04-11T01:16:03.026Z,3.60
2019-04-11T01:18:32.019Z,3.60
2019-04-11T01:21:01.938Z,3.60
2019-04-11T01:23:31.300Z,3.60
2019-04-11T01:26:01.191Z,3.60
2019-04-11T01:28:31.001Z,3.60
2019-04-11T01:31:05.155Z,3.60
2019-04-11T01:33:34.158Z,3.60
2019-04-11T01:36:03.134Z,3.60
2019-04-11T01:38:34.642Z,3.50
2019-04-11T01:41:04.484Z,3.60
2019-04-11T01:43:33.788Z,3.60
2019-04-11T01:46:02.856Z,3.50
2019-04-11T01:48:40.000Z,3.50
2019-04-11T01:51:09.656Z,3.50
2019-04-11T01:53:40.535Z,3.50
2019-04-11T01:56:09.432Z,3.50
2019-04-11T01:58:38.537Z,3.50
2019-04-11T02:01:21.025Z,3.50
2019-04-11T02:04:05.728Z,3.40
2019-04-11T02:06:36.124Z,3.40
2019-04-11T02:09:10.106Z,3.40
2019-04-11T02:11:39.473Z,3.40
2019-04-11T02:14:15.773Z,3.40
2019-04-11T02:16:39.583Z,3.40
2019-04-11T02:19:08.489Z,3.40
2019-04-11T02:21:38.003Z,3.40
2019-04-11T02:24:37.701Z,3.40
2019-04-11T02:27:50.516Z,3.40
2019-04-11T02:30:23.140Z,3.40
2019-04-11T02:33:11.697Z,3.30
2019-04-11T02:35:50.129Z,3.40
2019-04-11T02:38:30.335Z,3.30
2019-04-11T02:41:08.612Z,3.40
2019-04-11T02:43:41.746Z,3.30
2019-04-11T02:46:17.475Z,3.30
2019-04-11T02:48:40.663Z,3.30
2019-04-11T02:51:10.109Z,3.30
2019-04-11T02:53:41.043Z,3.30
2019-04-11T02:56:11.791Z,3.30
2019-04-11T02:58:41.268Z,3.20
2019-04-11T03:01:12.764Z,3.20
2019-04-11T03:03:42.404Z,3.20
2019-04-11T03:06:11.809Z,3.20
2019-04-11T03:08:43.102Z,3.20
2019-04-11T03:11:11.864Z,3.20
2019-04-11T03:13:42.180Z,3.20
2019-04-11T03:16:30.772Z,3.10
2019-04-11T03:18:59.281Z,3.10
2019-04-11T03:21:19.877Z,3.10
2019-04-11T03:23:44.207Z,3.10
2019-04-11T03:26:14.176Z,3.10
2019-04-11T03:28:49.046Z,3.00
2019-04-11T03:31:50.565Z,3.10
2019-04-11T03:34:40.192Z,3.00
2019-04-11T03:39:11.831Z,3.00
2019-04-11T03:41:37.281Z,3.00
2019-04-11T03:44:01.868Z,2.90
2019-04-11T03:46:37.786Z,2.90
2019-04-11T03:49:03.424Z,2.90
2019-04-11T03:51:26.257Z,2.80
2019-04-11T03:53:56.856Z,2.80
2019-04-11T03:56:26.792Z,2.80
2019-04-11T03:58:57.602Z,2.80
2019-04-11T04:01:27.396Z,2.80
2019-04-11T04:03:58.187Z,2.80
2019-04-11T04:06:28.688Z,2.70
2019-04-11T04:08:58.529Z,2.70
2019-04-11T04:11:31.621Z,2.70
2019-04-11T04:14:19.869Z,2.60
2019-04-11T04:17:07.018Z,2.60
2019-04-11T04:19:45.643Z,2.60
2019-04-11T04:22:37.707Z,2.60
2019-04-11T04:25:10.131Z,2.60
2019-04-11T04:27:40.890Z,2.60
2019-04-11T04:30:11.000Z,2.60
2019-04-11T04:32:42.904Z,2.50
2019-04-11T04:35:15.608Z,2.50
2019-04-11T04:37:44.951Z,2.50
2019-04-11T04:40:34.201Z,2.50
2019-04-11T04:42:50.292Z,2.50
2019-04-11T04:45:17.036Z,2.40
2019-04-11T04:47:51.410Z,2.50
2019-04-11T04:50:18.056Z,2.40
2019-04-11T04:52:48.976Z,2.40
2019-04-11T04:55:19.397Z,2.50
2019-04-11T04:57:48.864Z,2.40
2019-04-11T05:00:18.814Z,2.40
2019-04-11T05:02:50.260Z,2.40
2019-04-11T05:05:19.700Z,2.40
2019-04-11T05:07:49.851Z,2.40
2019-04-11T05:10:20.033Z,2.40
2019-04-11T05:12:49.428Z,2.30
2019-04-11T05:15:18.686Z,2.40
2019-04-11T05:17:49.172Z,2.40
2019-04-11T05:20:18.219Z,2.50
2019-04-11T05:22:47.283Z,2.50
2019-04-11T05:25:16.532Z,2.50
2019-04-11T05:27:45.470Z,2.70
2019-04-11T05:30:18.772Z,3.00
2019-04-11T05:32:49.243Z,3.20
2019-04-11T05:35:18.550Z,3.50
2019-04-11T05:37:47.608Z,3.60
2019-04-11T05:40:16.918Z,3.80
2019-04-11T05:42:50.044Z,4.20
2019-04-11T05:45:20.851Z,4.60
2019-04-11T05:47:50.933Z,5.20
2019-04-11T05:50:26.391Z,5.70
2019-04-11T05:52:56.705Z,5.80
2019-04-11T05:55:27.927Z,5.80
2019-04-11T05:57:58.623Z,6.00
2019-04-11T06:00:57.822Z,6.50
2019-04-11T06:03:28.154Z,7.10
2019-04-11T06:06:10.851Z,7.40
2019-04-11T06:08:41.911Z,7.40
2019-04-11T06:11:24.060Z,7.90
2019-04-11T06:14:20.181Z,8.50
2019-04-11T06:16:55.291Z,9.60
2019-04-11T06:19:30.533Z,10.80
2019-04-11T06:22:02.856Z,11.20
2019-04-11T06:24:50.176Z,11.90
2019-04-11T06:27:24.114Z,12.60
2019-04-11T06:30:13.419Z,11.90
2019-04-11T06:33:02.447Z,11.20
2019-04-11T06:35:42.689Z,11.90
2019-04-11T06:38:30.669Z,11.70
2019-04-11T06:41:06.269Z,11.40
2019-04-11T06:43:44.524Z,9.60
2019-04-11T06:46:31.425Z,8.40
2019-04-11T06:49:22.524Z,7.30
2019-04-11T06:51:56.682Z,6.60
2019-04-11T06:54:33.316Z,6.10
2019-04-11T06:57:03.105Z,5.90
2019-04-11T06:59:36.526Z,5.70
2019-04-11T07:02:16.520Z,5.60
2019-04-11T07:05:02.556Z,5.60
2019-04-11T07:07:34.234Z,5.40
2019-04-11T07:10:06.251Z,5.30
2019-04-11T07:12:58.945Z,5.40
2019-04-11T07:15:37.722Z,5.50
2019-04-11T07:18:24.816Z,5.60
2019-04-11T07:20:58.907Z,5.60
2019-04-11T07:23:45.320Z,6.90
2019-04-11T07:26:39.050Z,8.90
2019-04-11T07:29:27.051Z,10.90
2019-04-11T07:32:16.325Z,12.20
2019-04-11T07:35:04.785Z,12.30
2019-04-11T07:37:41.443Z,11.90
2019-04-11T07:40:33.173Z,11.10
2019-04-11T07:43:11.519Z,10.30
2019-04-11T07:45:55.942Z,8.90
2019-04-11T07:48:29.238Z,8.10
2019-04-11T07:51:08.855Z,7.60
2019-04-11T07:53:40.533Z,7.30
2019-04-11T07:56:09.834Z,7.00
2019-04-11T07:58:45.562Z,6.90
2019-04-11T08:01:40.386Z,6.90
2019-04-11T08:04:27.767Z,6.90
2019-04-11T08:07:22.161Z,7.00
2019-04-11T08:10:02.538Z,6.90
2019-04-11T08:12:32.254Z,6.90
2019-04-11T08:15:26.797Z,7.00
2019-04-11T08:17:56.339Z,7.20
2019-04-11T08:20:50.113Z,7.20
2019-04-11T08:23:20.039Z,7.30
2019-04-11T08:26:20.020Z,7.30
2019-04-11T08:28:59.673Z,7.20
2019-04-11T08:31:36.843Z,7.20
2019-04-11T08:34:07.438Z,7.30
2019-04-11T08:36:55.356Z,7.40
2019-04-11T08:39:31.402Z,7.40
2019-04-11T08:42:29.993Z,7.50
2019-04-11T08:44:58.931Z,7.50
2019-04-11T08:47:41.943Z,7.50
2019-04-11T08:50:04.087Z,7.50
2019-04-11T08:52:56.123Z,7.40
2019-04-11T08:55:46.669Z,7.40
2019-04-11T08:58:16.219Z,7.60
2019-04-11T09:00:51.273Z,7.70
2019-04-11T09:03:42.043Z,7.80
2019-04-11T09:06:14.710Z,8.00
2019-04-11T09:09:02.804Z,8.00
2019-04-11T09:11:51.269Z,8.10
2019-04-11T09:14:38.030Z,8.00
2019-04-11T09:17:19.902Z,8.10
2019-04-11T09:20:23.516Z,8.00
2019-04-11T09:23:17.666Z,8.10
2019-04-11T09:26:20.205Z,8.10
2019-04-11T09:28:51.621Z,8.10
2019-04-11T09:31:41.436Z,8.20
2019-04-11T09:34:30.047Z,8.20
2019-04-11T09:37:03.270Z,8.30
2019-04-11T09:39:39.873Z,8.20
2019-04-11T09:42:34.590Z,8.10
2019-04-11T09:45:23.760Z,8.30
2019-04-11T09:48:24.594Z,8.30
2019-04-11T09:51:11.519Z,8.30
2019-04-11T09:53:41.408Z,8.40
2019-04-11T09:56:37.868Z,8.50
2019-04-11T09:59:12.270Z,8.50
2019-04-11T10:01:56.742Z,8.60
2019-04-11T10:04:27.276Z,8.80
2019-04-11T10:07:14.795Z,8.70
2019-04-11T10:09:58.031Z,8.80
2019-04-11T10:12:44.854Z,8.80
2019-04-11T10:15:15.376Z,8.80
2019-04-11T10:18:03.132Z,8.90
2019-04-11T10:20:33.319Z,9.00
2019-04-11T10:23:20.758Z,8.90
2019-04-11T10:25:56.299Z,8.90
2019-04-11T10:28:48.100Z,8.90
2019-04-11T10:31:20.216Z,9.00
2019-04-11T10:34:07.383Z,9.10
2019-04-11T10:36:40.191Z,9.10
2019-04-11T10:39:49.208Z,9.30
2019-04-11T10:42:18.353Z,9.30
2019-04-11T10:45:22.669Z,9.40
2019-04-11T10:47:54.774Z,9.40
2019-04-11T10:50:46.940Z,9.40
2019-04-11T10:53:16.698Z,9.30
2019-04-11T10:56:08.582Z,9.30
2019-04-11T10:58:45.131Z,9.30
2019-04-11T11:01:42.363Z,9.40
2019-04-11T11:04:20.018Z,9.40
2019-04-11T11:06:51.796Z,9.50
2019-04-11T11:09:37.276Z,9.60
2019-04-11T11:12:25.349Z,9.70
2019-04-11T11:15:07.900Z,9.60
2019-04-11T11:18:32.117Z,9.60
2019-04-11T11:20:55.823Z,9.50
2019-04-11T11:23:41.156Z,9.60
2019-04-11T11:26:29.470Z,9.60
2019-04-11T11:29:18.535Z,9.40
2019-04-11T11:31:54.618Z,9.40
2019-04-11T11:34:30.625Z,9.40
2019-04-11T11:37:17.528Z,9.60
2019-04-11T11:40:06.688Z,9.60
2019-04-11T11:42:50.579Z,9.80
2019-04-11T11:45:37.416Z,9.80
2019-04-11T11:48:14.771Z,9.90
2019-04-11T11:50:42.614Z,9.80
2019-04-11T11:53:22.585Z,9.80
2019-04-11T11:55:51.732Z,9.90
2019-04-11T11:58:55.348Z,9.90
2019-04-11T12:01:20.297Z,9.90
2019-04-11T12:04:06.706Z,10.10
2019-04-11T12:06:36.155Z,10.10
2019-04-11T12:09:31.906Z,10.10
2019-04-11T12:12:06.453Z,10.20
2019-04-11T12:14:54.504Z,10.40
2019-04-11T12:17:36.156Z,10.30
2019-04-11T12:20:16.935Z,10.40
2019-04-11T12:22:49.114Z,10.30
2019-04-11T12:25:27.250Z,10.30
2019-04-11T12:28:05.284Z,10.50
2019-04-11T12:30:37.853Z,10.40
2019-04-11T12:33:24.137Z,10.40
2019-04-11T12:36:18.755Z,10.30
2019-04-11T12:39:25.453Z,10.30
2019-04-11T12:42:00.365Z,10.30
2019-04-11T12:44:46.484Z,10.30
2019-04-11T12:47:26.012Z,10.30
2019-04-11T12:50:14.069Z,10.20
2019-04-11T12:52:46.941Z,10.40
2019-04-11T12:55:20.315Z,10.60
2019-04-11T12:58:06.561Z,10.70
2019-04-11T13:00:42.685Z,10.70
2019-04-11T13:03:39.005Z,10.60
2019-04-11T13:06:16.083Z,10.50
2019-04-11T13:09:09.981Z,10.30
2019-04-11T13:11:40.063Z,10.50
2019-04-11T13:14:17.393Z,10.50
2019-04-11T13:16:48.361Z,10.50
2019-04-11T13:19:36.447Z,10.50
2019-04-11T13:22:10.639Z,10.50
2019-04-11T13:24:56.992Z,10.50
2019-04-11T13:27:32.384Z,10.70
2019-04-11T13:30:16.429Z,10.80
2019-04-11T13:32:47.826Z,11.00
2019-04-11T13:35:34.147Z,10.80
2019-04-11T13:38:28.261Z,11.00
2019-04-11T13:41:16.481Z,11.10
2019-04-11T13:44:19.334Z,10.90
2019-04-11T13:47:07.325Z,10.70
2019-04-11T13:49:50.441Z,10.80
2019-04-11T13:52:38.470Z,10.90
2019-04-11T13:55:28.899Z,10.90
2019-04-11T13:58:16.909Z,10.70
2019-04-11T14:00:53.704Z,10.50
2019-04-11T14:03:44.599Z,10.40
2019-04-11T14:06:18.944Z,10.40
2019-04-11T14:09:22.416Z,10.50
2019-04-11T14:11:53.298Z,10.70
2019-04-11T14:14:30.407Z,10.90
2019-04-11T14:17:09.745Z,10.80
2019-04-11T14:19:58.039Z,11.00
2019-04-11T14:22:31.576Z,10.80
2019-04-11T14:25:19.669Z,10.70
2019-04-11T14:27:50.486Z,10.70
2019-04-11T14:30:44.225Z,10.70
2019-04-11T14:33:13.387Z,10.70
2019-04-11T14:36:01.412Z,10.80
2019-04-11T14:38:32.319Z,10.80
2019-04-11T14:41:18.467Z,10.80
2019-04-11T14:43:51.959Z,10.80
2019-04-11T14:46:41.751Z,10.90
2019-04-11T14:49:16.353Z,10.90
2019-04-11T14:52:03.627Z,10.50
2019-04-11T14:54:44.040Z,10.40
2019-04-11T14:57:47.044Z,10.20
2019-04-11T15:00:30.603Z,10.40
2019-04-11T15:03:24.174Z,10.50
2019-04-11T15:06:07.256Z,10.60
2019-04-11T15:08:47.471Z,10.50
2019-04-11T15:11:39.641Z,10.60
2019-04-11T15:14:27.817Z,10.80
2019-04-11T15:17:17.808Z,11.00
2019-04-11T15:20:04.555Z,10.80
2019-04-11T15:22:41.244Z,10.90
2019-04-11T15:25:20.693Z,10.90
2019-04-11T15:28:07.831Z,10.90
2019-04-11T15:30:37.552Z,10.90
2019-04-11T15:33:24.376Z,10.90
2019-04-11T15:35:57.644Z,10.80
2019-04-11T15:38:41.473Z,10.60
2019-04-11T15:41:10.484Z,10.60
2019-04-11T15:43:58.619Z,10.60
2019-04-11T15:46:32.731Z,10.60
2019-04-11T15:49:35.712Z,10.60
2019-04-11T15:52:07.904Z,10.60
2019-04-11T15:54:56.044Z,10.70
2019-04-11T15:57:33.622Z,10.70
2019-04-11T16:00:29.625Z,10.70
2019-04-11T16:03:10.322Z,10.50
2019-04-11T16:06:01.705Z,10.60
2019-04-11T16:08:34.165Z,10.70
2019-04-11T16:11:20.961Z,10.70
2019-04-11T16:14:02.593Z,10.50
2019-04-11T16:16:56.210Z,10.60
2019-04-11T16:19:43.154Z,10.80
2019-04-11T16:22:29.523Z,10.70
2019-04-11T16:25:00.635Z,10.80
2019-04-11T16:27:49.564Z,10.80
2019-04-11T16:30:20.124Z,10.80
2019-04-11T16:33:03.399Z,10.80
2019-04-11T16:35:41.245Z,10.70
2019-04-11T16:38:10.653Z,10.80
2019-04-11T16:41:13.560Z,10.70
2019-04-11T16:43:44.348Z,10.80
2019-04-11T16:46:44.176Z,10.70
2019-04-11T16:49:13.087Z,10.60
2019-04-11T16:51:42.106Z,10.40
2019-04-11T16:54:11.003Z,10.40
2019-04-11T16:56:41.707Z,10.40
2019-04-11T16:59:10.537Z,10.40
2019-04-11T17:01:39.473Z,10.30
2019-04-11T17:04:08.455Z,10.40
2019-04-11T17:07:05.617Z,10.40
2019-04-11T17:09:41.934Z,10.50
2019-04-11T17:12:10.967Z,10.30
2019-04-11T17:14:39.983Z,10.30
2019-04-11T17:17:14.901Z,10.30
2019-04-11T17:19:40.067Z,10.30
2019-04-11T17:22:09.193Z,10.20
2019-04-11T17:24:38.302Z,10.20
2019-04-11T17:27:07.473Z,10.10
2019-04-11T17:29:36.411Z,10.10
2019-04-11T17:32:05.462Z,10.00
2019-04-11T17:34:34.400Z,10.00
2019-04-11T17:37:03.561Z,10.10
2019-04-11T17:39:36.612Z,10.00
2019-04-11T17:42:03.288Z,9.90
2019-04-11T17:44:32.124Z,9.90
2019-04-11T17:47:01.252Z,9.80
2019-04-11T17:49:30.175Z,9.80
2019-04-11T17:51:59.085Z,9.60
2019-04-11T17:54:27.997Z,9.60
2019-04-11T17:56:59.051Z,9.40
2019-04-11T17:59:29.059Z,9.30
2019-04-11T18:01:58.316Z,9.10
2019-04-11T18:04:27.423Z,9.10
2019-04-11T18:06:56.255Z,9.00
2019-04-11T18:09:26.324Z,8.90
2019-04-11T18:11:56.115Z,8.90
2019-04-11T18:14:25.814Z,8.80
2019-04-11T18:16:54.733Z,8.80
2019-04-11T18:19:23.745Z,8.70
2019-04-11T18:21:52.794Z,8.60
2019-04-11T18:24:21.859Z,8.50
2019-04-11T18:26:52.471Z,8.50
2019-04-11T18:29:22.951Z,8.40
2019-04-11T18:31:53.072Z,8.40
2019-04-11T18:34:22.190Z,8.30
2019-04-11T18:36:51.223Z,8.20
2019-04-11T18:39:20.212Z,8.20
2019-04-11T18:41:49.329Z,8.10
2019-04-11T18:44:20.617Z,8.10
2019-04-11T18:46:49.551Z,8.00
2019-04-11T18:49:19.474Z,7.90
2019-04-11T18:51:50.793Z,8.00
2019-04-11T18:54:19.997Z,7.90
2019-04-11T18:56:48.975Z,8.00
2019-04-11T18:59:17.973Z,7.90
2019-04-11T19:01:47.066Z,7.80
2019-04-11T19:04:16.104Z,7.80
2019-04-11T19:06:45.020Z,7.70
2019-04-11T19:09:16.155Z,7.80
2019-04-11T19:11:46.238Z,7.70
2019-04-11T19:14:16.694Z,7.60
2019-04-11T19:16:45.964Z,7.50
2019-04-11T19:19:18.357Z,7.60
2019-04-11T19:21:50.768Z,7.50
2019-04-11T19:24:17.380Z,7.50
2019-04-11T19:26:46.979Z,7.50
2019-04-11T19:29:16.300Z,7.50
2019-04-11T19:31:45.330Z,7.40
2019-04-11T19:34:14.428Z,7.50
2019-04-11T19:36:43.361Z,7.40
2019-04-11T19:39:13.925Z,7.40
2019-04-11T19:41:43.346Z,7.40
2019-04-11T19:44:12.269Z,7.40
2019-04-11T19:46:41.233Z,7.40
2019-04-11T19:49:10.216Z,7.40
2019-04-11T19:51:41.251Z,7.30
2019-04-11T19:54:10.452Z,7.20
2019-04-11T19:56:43.898Z,7.20
2019-04-11T19:59:12.928Z,7.10
2019-04-11T20:01:41.865Z,7.00
2019-04-11T20:04:10.792Z,6.90
2019-04-11T20:06:39.732Z,6.90
2019-04-11T20:09:08.778Z,6.80
2019-04-11T20:11:37.720Z,6.80
2019-04-11T20:14:07.933Z,6.80
2019-04-11T20:16:41.988Z,6.80
2019-04-11T20:19:08.266Z,6.80
2019-04-11T20:21:38.345Z,6.80
2019-04-11T20:24:08.178Z,6.80
2019-04-11T20:26:37.182Z,6.80
2019-04-11T20:29:06.258Z,6.80
2019-04-11T20:31:35.208Z,6.70
2019-04-11T20:34:06.885Z,6.70
2019-04-11T20:36:34.741Z,6.70
2019-04-11T20:39:05.741Z,6.60
2019-04-11T20:41:34.674Z,6.50
2019-04-11T20:44:03.672Z,6.40
2019-04-11T20:46:32.511Z,6.40
2019-04-11T20:49:01.429Z,6.40
2019-04-11T20:51:30.292Z,6.30
2019-04-11T20:53:59.277Z,6.30
2019-04-11T20:56:28.510Z,6.20
2019-04-11T20:58:57.545Z,6.20
2019-04-11T21:01:36.737Z,6.20
2019-04-11T21:04:05.905Z,6.10
2019-04-11T21:06:34.843Z,6.10
2019-04-11T21:09:07.257Z,6.10
2019-04-11T21:11:37.173Z,6.00
2019-04-11T21:14:09.181Z,6.00
2019-04-11T21:16:38.098Z,6.00
2019-04-11T21:19:07.379Z,6.00
2019-04-11T21:21:36.677Z,6.00
2019-04-11T21:24:08.739Z,6.00
2019-04-11T21:26:38.342Z,5.90
2019-04-11T21:29:07.288Z,5.90
2019-04-11T21:31:36.397Z,5.90
2019-04-11T21:34:05.583Z,5.90
2019-04-11T21:36:34.798Z,5.90
2019-04-11T21:39:05.916Z,5.90
2019-04-11T21:41:36.294Z,5.80
2019-04-11T21:44:06.934Z,5.80
2019-04-11T21:46:38.126Z,5.80
2019-04-11T21:49:23.348Z,5.80
2019-04-11T21:51:52.388Z,5.80
2019-04-11T21:54:23.038Z,5.80
2019-04-11T21:56:51.924Z,5.80
2019-04-11T21:59:21.156Z,5.80
2019-04-11T22:01:53.887Z,5.70
2019-04-11T22:04:21.852Z,5.80
2019-04-11T22:06:50.871Z,5.80
2019-04-11T22:09:19.850Z,5.80
2019-04-11T22:11:48.811Z,5.70
2019-04-11T22:14:20.788Z,5.70
2019-04-11T22:16:49.784Z,5.70
2019-04-11T22:19:20.143Z,5.70
2019-04-11T22:21:51.304Z,5.70
2019-04-11T22:24:20.350Z,5.60
2019-04-11T22:26:50.641Z,5.60
2019-04-11T22:29:20.007Z,5.70
2019-04-11T22:31:48.959Z,5.70
2019-04-11T22:34:31.619Z,5.70
2019-04-11T22:37:00.596Z,5.80
2019-04-11T22:39:31.491Z,5.80
2019-04-11T22:42:00.382Z,5.80
2019-04-11T22:44:29.340Z,5.80
2019-04-11T22:46:58.173Z,5.80
2019-04-11T22:49:27.178Z,5.90
2019-04-11T22:51:56.161Z,5.90
2019-04-11T22:54:25.063Z,6.00
2019-04-11T22:56:54.083Z,6.00
2019-04-11T22:59:23.103Z,6.10
2019-04-11T23:01:53.677Z,6.10
2019-04-11T23:04:23.035Z,6.10
2019-04-11T23:06:51.979Z,6.10
2019-04-11T23:09:20.843Z,6.10
2019-04-11T23:11:49.678Z,6.10
2019-04-11T23:14:18.672Z,6.20
2019-04-11T23:16:47.513Z,6.20
2019-04-11T23:19:16.560Z,6.20
2019-04-11T23:21:45.500Z,6.20
2019-04-11T23:24:14.339Z,6.20
2019-04-11T23:26:43.267Z,6.30
2019-04-11T23:29:15.654Z,6.30
2019-04-11T23:31:42.859Z,6.30
2019-04-11T23:34:11.704Z,6.30
2019-04-11T23:36:40.563Z,6.20
2019-04-11T23:39:10.385Z,6.20
2019-04-11T23:41:39.338Z,6.30
2019-04-11T23:44:08.203Z,6.30
2019-04-11T23:46:37.049Z,6.30
2019-04-11T23:49:06.064Z,6.30
2019-04-11T23:51:34.960Z,6.30
2019-04-11T23:54:03.935Z,6.20
2019-04-11T23:56:32.871Z,6.20
2019-04-11T23:59:02.598Z,6.20
